Time;durP1;ratioP1;P1;durP2;ratioP2;P2;SDS_P1;SDS_P2;PMS_P1;PMS_P2;Temp;Humidity;BMP_temperature;BMP_pressure;BME280_temperature;BME280_humidity;BME280_pressure;Samples;Min_cycle;Max_cycle;Signal;HPM_P1;HPM_P2
2022/04/04 00:01:16;;;;;;;12.55;5.93;;;;;;;;;;5006909;28;20044;-71
2022/04/04 00:03:41;;;;;;;14.73;6.72;;;;;;;;;;5006605;28;20034;-71
2022/04/04 00:06:07;;;;;;;20.13;8.43;;;;;;;;;;5018893;28;20483;-71
2022/04/04 00:08:33;;;;;;;21.70;8.60;;;;;;;;;;5007906;28;21011;-71
2022/04/04 00:10:59;;;;;;;23.58;9.95;;;;;;;;;;5007030;28;20053;-71
2022/04/04 00:13:25;;;;;;;27.80;12.15;;;;;;;;;;5006301;28;20038;-71
2022/04/04 00:15:51;;;;;;;30.25;12.27;;;;;;;;;;5007999;28;20034;-71
2022/04/04 00:18:16;;;;;;;29.35;11.90;;;;;;;;;;5008254;28;20041;-71
2022/04/04 00:20:42;;;;;;;33.17;13.90;;;;;;;;;;5007807;28;20121;-71
2022/04/04 00:23:12;;;;;;;32.40;13.68;;;;;;;;;;5010250;28;20025;-71
2022/04/04 00:25:41;;;;;;;32.17;13.25;;;;;;;;;;5003255;28;20046;-71
2022/04/04 00:28:06;;;;;;;27.67;12.75;;;;;;;;;;4996459;28;20046;-71
2022/04/04 00:30:32;;;;;;;31.52;12.75;;;;;;;;;;5007730;28;20038;-71
2022/04/04 00:32:57;;;;;;;29.23;12.05;;;;;;;;;;5004829;28;20042;-71
2022/04/04 00:35:23;;;;;;;33.20;12.35;;;;;;;;;;5007674;28;20040;-71
2022/04/04 00:37:48;;;;;;;31.45;12.90;;;;;;;;;;5007640;28;20030;-72
2022/04/04 00:40:14;;;;;;;32.88;12.77;;;;;;;;;;5007692;28;20038;-71
2022/04/04 00:42:40;;;;;;;35.63;13.45;;;;;;;;;;5007061;28;20063;-71
2022/04/04 00:45:06;;;;;;;32.90;12.85;;;;;;;;;;5006027;28;20125;-71
2022/04/04 00:47:32;;;;;;;35.35;12.75;;;;;;;;;;5001699;28;20069;-71
2022/04/04 00:49:57;;;;;;;31.55;12.35;;;;;;;;;;5004207;28;20069;-71
2022/04/04 00:52:22;;;;;;;33.33;12.90;;;;;;;;;;5005216;28;20072;-71
2022/04/04 00:54:48;;;;;;;31.70;12.43;;;;;;;;;;5007274;28;20129;-71
2022/04/04 00:57:13;;;;;;;24.23;11.07;;;;;;;;;;5007598;28;20057;-71
2022/04/04 00:59:40;;;;;;;23.73;10.55;;;;;;;;;;5005436;28;20046;-71
2022/04/04 01:02:06;;;;;;;32.88;11.80;;;;;;;;;;5007426;28;20089;-71
2022/04/04 01:04:32;;;;;;;20.98;9.52;;;;;;;;;;5008810;28;20478;-71
2022/04/04 01:07:01;;;;;;;21.42;10.10;;;;;;;;;;4995340;28;20754;-71
2022/04/04 01:09:26;;;;;;;19.30;8.73;;;;;;;;;;5007079;28;20062;-71
2022/04/04 01:12:02;;;;;;;21.27;9.40;;;;;;;;;;5007408;28;20454;-71
2022/04/04 01:14:27;;;;;;;20.70;9.15;;;;;;;;;;5005483;28;20034;-71
2022/04/04 01:16:53;;;;;;;21.58;9.15;;;;;;;;;;5006290;28;20470;-71
2022/04/04 01:19:19;;;;;;;16.77;8.02;;;;;;;;;;5005031;28;20041;-71
2022/04/04 01:21:44;;;;;;;16.90;8.43;;;;;;;;;;5007069;28;20061;-71
2022/04/04 01:24:22;;;;;;;19.67;8.18;;;;;;;;;;5011495;28;20125;-71
2022/04/04 01:26:49;;;;;;;19.75;8.15;;;;;;;;;;5005828;28;20033;-71
2022/04/04 01:29:14;;;;;;;15.93;8.00;;;;;;;;;;5006752;28;20056;-71
2022/04/04 01:31:40;;;;;;;16.85;8.00;;;;;;;;;;5006933;28;20722;-71
2022/04/04 01:34:05;;;;;;;19.83;8.23;;;;;;;;;;5006112;28;20042;-71
2022/04/04 01:36:31;;;;;;;15.10;7.35;;;;;;;;;;5001265;28;20096;-71
2022/04/04 01:38:56;;;;;;;13.48;7.55;;;;;;;;;;5006164;28;20040;-71
2022/04/04 01:41:22;;;;;;;17.98;8.75;;;;;;;;;;5006789;28;20534;-71
2022/04/04 01:43:47;;;;;;;16.10;8.00;;;;;;;;;;5007960;28;20029;-71
2022/04/04 01:46:24;;;;;;;18.08;8.60;;;;;;;;;;4999624;28;20034;-71
2022/04/04 01:48:51;;;;;;;17.00;7.63;;;;;;;;;;5003108;28;20081;-71
2022/04/04 01:51:17;;;;;;;18.05;7.93;;;;;;;;;;5006601;28;20038;-71
2022/04/04 01:53:43;;;;;;;17.48;7.72;;;;;;;;;;5005362;28;20038;-71
2022/04/04 01:56:09;;;;;;;19.02;8.00;;;;;;;;;;5000968;28;20665;-71
2022/04/04 01:58:35;;;;;;;17.25;7.93;;;;;;;;;;5006327;28;20123;-71
2022/04/04 02:01:04;;;;;;;18.60;7.70;;;;;;;;;;5006596;28;20033;-71
2022/04/04 02:03:33;;;;;;;17.00;7.65;;;;;;;;;;5005146;28;20435;-71
2022/04/04 02:05:59;;;;;;;14.02;6.60;;;;;;;;;;5011279;28;20040;-71
2022/04/04 02:08:25;;;;;;;13.50;7.57;;;;;;;;;;5009938;28;20040;-71
2022/04/04 02:10:50;;;;;;;16.27;7.65;;;;;;;;;;5001998;28;20466;-71
2022/04/04 02:13:15;;;;;;;16.48;7.95;;;;;;;;;;5009360;28;20522;-71
2022/04/04 02:15:41;;;;;;;14.82;7.07;;;;;;;;;;5009841;28;20062;-71
2022/04/04 02:18:06;;;;;;;15.90;7.30;;;;;;;;;;5010742;28;20061;-71
2022/04/04 02:20:31;;;;;;;16.13;6.88;;;;;;;;;;5009703;28;20033;-72
2022/04/04 02:22:57;;;;;;;15.95;6.68;;;;;;;;;;5011924;28;20021;-71
2022/04/04 02:25:22;;;;;;;14.80;6.22;;;;;;;;;;5011785;28;20045;-71
2022/04/04 02:27:48;;;;;;;15.32;6.90;;;;;;;;;;5009130;28;20041;-71
2022/04/04 02:30:13;;;;;;;15.07;6.55;;;;;;;;;;5009390;28;20503;-71
2022/04/04 02:32:39;;;;;;;11.88;6.00;;;;;;;;;;5010531;28;20040;-71
2022/04/04 02:35:05;;;;;;;14.93;6.43;;;;;;;;;;5009633;28;20099;-71
2022/04/04 02:37:30;;;;;;;12.95;6.85;;;;;;;;;;5008843;28;20038;-71
2022/04/04 02:39:56;;;;;;;11.45;6.03;;;;;;;;;;5009392;28;20053;-71
2022/04/04 02:42:22;;;;;;;12.18;6.00;;;;;;;;;;5010009;28;20042;-71
2022/04/04 02:44:48;;;;;;;16.80;6.28;;;;;;;;;;5009491;28;20045;-71
2022/04/04 02:47:13;;;;;;;13.35;6.40;;;;;;;;;;5010752;28;20026;-71
2022/04/04 02:49:39;;;;;;;11.57;5.93;;;;;;;;;;5009665;28;20057;-71
2022/04/04 02:52:05;;;;;;;10.10;5.68;;;;;;;;;;5003213;28;20034;-71
2022/04/04 02:54:30;;;;;;;12.10;6.30;;;;;;;;;;5009245;28;20076;-71
2022/04/04 02:56:55;;;;;;;10.55;5.65;;;;;;;;;;5009612;28;20048;-71
2022/04/04 02:59:21;;;;;;;15.50;5.80;;;;;;;;;;5010070;28;20051;-71
2022/04/04 03:01:48;;;;;;;14.07;5.32;;;;;;;;;;5009133;28;20042;-71
2022/04/04 03:04:18;;;;;;;11.38;5.40;;;;;;;;;;5011972;28;20033;-71
2022/04/04 03:06:44;;;;;;;12.13;5.82;;;;;;;;;;5007162;28;20034;-71
2022/04/04 03:09:10;;;;;;;9.70;5.38;;;;;;;;;;5009805;28;20034;-71
2022/04/04 03:11:36;;;;;;;13.27;6.13;;;;;;;;;;4992903;28;20072;-71
2022/04/04 03:14:01;;;;;;;11.35;6.38;;;;;;;;;;5009865;28;20054;-71
2022/04/04 03:16:27;;;;;;;15.07;6.15;;;;;;;;;;5008533;28;20060;-71
2022/04/04 03:18:57;;;;;;;12.07;5.68;;;;;;;;;;5004923;28;20038;-71
2022/04/04 03:21:23;;;;;;;11.18;6.03;;;;;;;;;;5004298;28;20038;-71
2022/04/04 03:23:48;;;;;;;12.77;5.97;;;;;;;;;;5010346;28;20125;-71
2022/04/04 03:26:14;;;;;;;15.32;5.93;;;;;;;;;;5009478;28;20030;-71
2022/04/04 03:28:40;;;;;;;12.20;5.78;;;;;;;;;;5007378;28;20600;-71
2022/04/04 03:31:06;;;;;;;13.10;6.32;;;;;;;;;;5001091;28;20050;-71
2022/04/04 03:33:36;;;;;;;15.13;6.40;;;;;;;;;;5008023;28;20590;-71
2022/04/04 03:36:01;;;;;;;13.48;5.95;;;;;;;;;;5008381;28;20470;-71
2022/04/04 03:38:28;;;;;;;12.65;5.97;;;;;;;;;;5007438;28;20037;-71
2022/04/04 03:40:53;;;;;;;12.63;5.65;;;;;;;;;;5009000;28;21386;-71
2022/04/04 03:43:19;;;;;;;12.70;6.00;;;;;;;;;;5005148;28;20033;-71
2022/04/04 03:45:45;;;;;;;10.57;5.20;;;;;;;;;;5007150;28;20042;-71
2022/04/04 03:48:10;;;;;;;9.88;5.82;;;;;;;;;;5004136;28;20100;-71
2022/04/04 03:50:37;;;;;;;14.52;5.57;;;;;;;;;;5008874;28;20052;-71
2022/04/04 03:53:02;;;;;;;13.27;6.15;;;;;;;;;;5008395;28;20026;-71
2022/04/04 03:55:37;;;;;;;10.05;4.82;;;;;;;;;;5008554;28;20055;-71
2022/04/04 03:58:03;;;;;;;10.07;5.20;;;;;;;;;;5006596;28;20037;-71
2022/04/04 04:00:29;;;;;;;12.77;6.10;;;;;;;;;;5002911;28;20041;-71
2022/04/04 04:02:55;;;;;;;8.52;5.13;;;;;;;;;;5007855;28;20044;-71
2022/04/04 04:05:21;;;;;;;12.32;5.13;;;;;;;;;;5009223;28;20030;-71
2022/04/04 04:07:47;;;;;;;10.45;5.35;;;;;;;;;;5007220;28;20033;-71
2022/04/04 04:10:12;;;;;;;10.10;5.47;;;;;;;;;;5008180;28;20030;-71
2022/04/04 04:12:42;;;;;;;10.48;5.47;;;;;;;;;;5007485;28;20080;-71
2022/04/04 04:15:14;;;;;;;16.92;6.15;;;;;;;;;;5008351;28;20038;-71
2022/04/04 04:17:39;;;;;;;10.32;5.15;;;;;;;;;;5007482;28;20047;-71
2022/04/04 04:20:20;;;;;;;8.77;4.38;;;;;;;;;;5007297;28;20030;-71
2022/04/04 04:23:01;;;;;;;11.52;4.43;;;;;;;;;;4987758;28;20158;-71
2022/04/04 04:25:28;;;;;;;12.80;6.82;;;;;;;;;;4999935;28;20050;-71
2022/04/04 04:27:55;;;;;;;13.15;5.70;;;;;;;;;;4982472;28;20092;-71
2022/04/04 04:30:20;;;;;;;8.95;5.20;;;;;;;;;;4996909;28;20038;-71
2022/04/04 04:32:49;;;;;;;13.07;5.75;;;;;;;;;;5007427;28;20688;-71
2022/04/04 04:35:15;;;;;;;15.75;6.18;;;;;;;;;;5007409;28;20057;-71
2022/04/04 04:37:41;;;;;;;11.40;5.22;;;;;;;;;;4987841;28;20074;-71
2022/04/04 04:40:08;;;;;;;14.23;5.40;;;;;;;;;;4988265;28;20050;-71
2022/04/04 04:42:33;;;;;;;13.80;6.53;;;;;;;;;;4997267;28;20050;-71
2022/04/04 04:45:00;;;;;;;12.25;6.03;;;;;;;;;;5015810;28;20411;-71
2022/04/04 04:47:25;;;;;;;14.40;6.00;;;;;;;;;;5004351;28;20030;-71
2022/04/04 04:49:50;;;;;;;10.82;6.10;;;;;;;;;;5006520;28;20064;-71
2022/04/04 04:52:16;;;;;;;11.77;5.75;;;;;;;;;;4999233;28;20113;-71
2022/04/04 04:54:42;;;;;;;12.05;5.75;;;;;;;;;;5005770;28;20065;-71
2022/04/04 04:57:08;;;;;;;12.75;6.47;;;;;;;;;;5005925;28;20507;-71
2022/04/04 04:59:34;;;;;;;10.43;5.72;;;;;;;;;;5007354;28;20557;-71
2022/04/04 05:01:59;;;;;;;14.27;6.45;;;;;;;;;;5006837;28;20089;-71
2022/04/04 05:04:25;;;;;;;14.75;7.47;;;;;;;;;;5008687;28;20522;-71
2022/04/04 05:06:50;;;;;;;13.95;5.78;;;;;;;;;;5007076;28;20034;-71
2022/04/04 05:09:18;;;;;;;11.68;6.93;;;;;;;;;;5007060;28;20049;-71
2022/04/04 05:11:44;;;;;;;13.15;6.75;;;;;;;;;;5005855;28;20116;-72
2022/04/04 05:14:15;;;;;;;12.30;6.15;;;;;;;;;;5006563;28;20041;-71
2022/04/04 05:16:44;;;;;;;16.98;6.28;;;;;;;;;;5006291;28;20575;-71
2022/04/04 05:19:11;;;;;;;6.97;4.03;;;;;;;;;;5006706;28;20132;-71
2022/04/04 05:21:37;;;;;;;13.23;5.97;;;;;;;;;;5007017;28;20061;-71
2022/04/04 05:24:04;;;;;;;14.52;6.15;;;;;;;;;;5006206;28;20042;-71
2022/04/04 05:26:29;;;;;;;14.82;7.07;;;;;;;;;;5004431;28;20033;-71
2022/04/04 05:28:55;;;;;;;15.20;6.70;;;;;;;;;;5002913;28;20034;-71
2022/04/04 05:31:20;;;;;;;12.82;6.70;;;;;;;;;;5006824;28;20042;-71
2022/04/04 05:33:46;;;;;;;10.65;5.82;;;;;;;;;;5006505;28;20104;-71
2022/04/04 05:36:11;;;;;;;15.85;6.47;;;;;;;;;;5006743;28;20030;-71
2022/04/04 05:38:36;;;;;;;8.60;4.70;;;;;;;;;;5006535;28;20048;-71
2022/04/04 05:41:02;;;;;;;13.48;7.10;;;;;;;;;;5000382;28;20083;-71
2022/04/04 05:43:28;;;;;;;12.38;5.38;;;;;;;;;;5006913;28;20599;-71
2022/04/04 05:45:53;;;;;;;11.73;5.93;;;;;;;;;;5005556;28;20811;-71
2022/04/04 05:48:19;;;;;;;12.75;5.35;;;;;;;;;;5002088;28;20037;-71
2022/04/04 05:50:44;;;;;;;13.48;6.65;;;;;;;;;;5005023;28;20065;-71
2022/04/04 05:53:09;;;;;;;13.80;7.80;;;;;;;;;;5005815;28;20079;-72
2022/04/04 05:55:35;;;;;;;16.52;7.82;;;;;;;;;;5004680;28;20408;-71
2022/04/04 05:58:00;;;;;;;14.27;7.03;;;;;;;;;;5006459;28;20060;-71
2022/04/04 06:00:25;;;;;;;14.65;7.05;;;;;;;;;;5006381;28;20099;-71
2022/04/04 06:02:51;;;;;;;14.52;6.80;;;;;;;;;;5006102;28;20049;-71
2022/04/04 06:05:17;;;;;;;15.95;6.32;;;;;;;;;;5007392;28;20037;-71
2022/04/04 06:07:42;;;;;;;13.95;6.60;;;;;;;;;;5006871;28;20030;-71
2022/04/04 06:10:09;;;;;;;14.02;6.97;;;;;;;;;;4999457;28;20168;-71
2022/04/04 06:12:39;;;;;;;12.27;6.45;;;;;;;;;;5006574;28;20085;-71
2022/04/04 06:15:06;;;;;;;13.30;7.30;;;;;;;;;;5006074;28;20045;-71
2022/04/04 06:17:31;;;;;;;14.68;7.00;;;;;;;;;;5006415;28;20038;-71
2022/04/04 06:19:57;;;;;;;9.57;5.22;;;;;;;;;;5003310;28;20060;-71
2022/04/04 06:22:22;;;;;;;15.52;6.80;;;;;;;;;;5006370;28;20042;-71
2022/04/04 06:24:49;;;;;;;22.02;7.70;;;;;;;;;;5008007;28;20045;-71
2022/04/04 06:27:15;;;;;;;16.33;7.80;;;;;;;;;;5005354;28;20034;-71
2022/04/04 06:29:41;;;;;;;15.18;6.35;;;;;;;;;;5007400;28;20050;-71
2022/04/04 06:32:07;;;;;;;13.90;6.85;;;;;;;;;;5007048;28;20140;-71
2022/04/04 06:34:32;;;;;;;13.60;6.47;;;;;;;;;;5003652;28;20579;-70
2022/04/04 06:36:58;;;;;;;10.82;5.72;;;;;;;;;;5004733;28;20519;-71
2022/04/04 06:39:24;;;;;;;12.45;7.03;;;;;;;;;;5006406;28;20141;-71
2022/04/04 06:41:51;;;;;;;11.38;6.07;;;;;;;;;;5006304;28;20041;-71
2022/04/04 06:44:17;;;;;;;14.40;7.47;;;;;;;;;;5007810;28;20037;-71
2022/04/04 06:46:43;;;;;;;15.95;8.27;;;;;;;;;;5005382;28;20050;-71
2022/04/04 06:49:08;;;;;;;14.40;7.18;;;;;;;;;;4997970;28;20046;-71
2022/04/04 06:51:34;;;;;;;15.00;8.30;;;;;;;;;;5009743;28;20037;-71
2022/04/04 06:54:05;;;;;;;15.75;6.65;;;;;;;;;;5009416;28;20041;-71
2022/04/04 06:56:31;;;;;;;12.60;6.97;;;;;;;;;;5009697;28;20115;-71
2022/04/04 06:58:57;;;;;;;13.15;6.82;;;;;;;;;;5010066;28;20037;-71
2022/04/04 07:01:23;;;;;;;15.85;7.03;;;;;;;;;;5004211;28;20570;-71
2022/04/04 07:03:48;;;;;;;10.57;5.75;;;;;;;;;;5009506;28;20470;-71
2022/04/04 07:06:13;;;;;;;14.07;7.85;;;;;;;;;;5011719;28;20034;-71
2022/04/04 07:08:39;;;;;;;14.65;7.35;;;;;;;;;;5007602;28;20049;-71
2022/04/04 07:11:08;;;;;;;17.30;7.38;;;;;;;;;;5009279;28;20140;-71
2022/04/04 07:13:34;;;;;;;15.77;6.45;;;;;;;;;;5009024;28;20455;-71
2022/04/04 07:15:59;;;;;;;17.90;7.93;;;;;;;;;;5008814;28;20156;-71
2022/04/04 07:18:24;;;;;;;11.45;6.03;;;;;;;;;;5009608;28;20124;-71
2022/04/04 07:20:50;;;;;;;13.85;7.13;;;;;;;;;;5007838;28;20034;-71
2022/04/04 07:23:15;;;;;;;15.75;7.40;;;;;;;;;;5004944;28;20030;-71
2022/04/04 07:25:40;;;;;;;14.35;6.88;;;;;;;;;;5008966;28;20038;-71
2022/04/04 07:28:08;;;;;;;12.40;5.82;;;;;;;;;;5008785;28;20042;-71
2022/04/04 07:30:33;;;;;;;16.23;6.50;;;;;;;;;;5003616;28;20264;-71
2022/04/04 07:33:01;;;;;;;12.82;6.53;;;;;;;;;;5007564;28;20559;-71
2022/04/04 07:35:27;;;;;;;16.90;7.53;;;;;;;;;;5009158;28;20507;-71
2022/04/04 07:37:52;;;;;;;16.38;7.57;;;;;;;;;;5007263;28;20026;-71
2022/04/04 07:40:20;;;;;;;12.05;6.47;;;;;;;;;;5008642;28;20053;-71
2022/04/04 07:42:46;;;;;;;11.35;6.45;;;;;;;;;;5012170;28;20040;-71
2022/04/04 07:45:16;;;;;;;15.98;8.07;;;;;;;;;;5017818;28;20431;-71
2022/04/04 07:47:42;;;;;;;9.57;5.63;;;;;;;;;;5006628;28;20092;-71
2022/04/04 07:50:10;;;;;;;12.85;6.00;;;;;;;;;;5008268;28;20107;-71
2022/04/04 07:52:36;;;;;;;16.50;6.80;;;;;;;;;;5008679;28;20037;-71
2022/04/04 07:55:02;;;;;;;17.70;6.88;;;;;;;;;;5008574;28;20061;-71
2022/04/04 07:57:27;;;;;;;16.25;7.63;;;;;;;;;;5008468;28;20046;-71
2022/04/04 07:59:52;;;;;;;14.32;7.00;;;;;;;;;;5008242;28;20582;-71
2022/04/04 08:02:18;;;;;;;12.52;7.40;;;;;;;;;;5007210;28;20061;-71
2022/04/04 08:04:44;;;;;;;13.60;6.78;;;;;;;;;;5007887;28;20514;-71
2022/04/04 08:07:09;;;;;;;17.73;7.50;;;;;;;;;;5008779;28;20034;-72
2022/04/04 08:09:35;;;;;;;14.30;6.78;;;;;;;;;;5008022;28;20044;-71
2022/04/04 08:12:00;;;;;;;12.02;6.15;;;;;;;;;;5006727;28;20579;-71
2022/04/04 08:14:26;;;;;;;11.23;6.22;;;;;;;;;;5006682;28;20569;-71
2022/04/04 08:16:51;;;;;;;11.15;4.97;;;;;;;;;;5008410;28;20033;-71
2022/04/04 08:19:17;;;;;;;15.75;8.05;;;;;;;;;;5007927;28;20046;-71
2022/04/04 08:21:44;;;;;;;17.02;10.35;;;;;;;;;;5008274;28;20042;-71
2022/04/04 08:24:13;;;;;;;16.95;9.13;;;;;;;;;;5007992;28;20042;-71
2022/04/04 08:26:39;;;;;;;14.52;8.13;;;;;;;;;;5004291;28;23464;-71
2022/04/04 08:29:05;;;;;;;18.27;8.80;;;;;;;;;;5001631;28;20029;-72
2022/04/04 08:31:30;;;;;;;17.13;8.43;;;;;;;;;;5007637;28;20092;-71
2022/04/04 08:33:56;;;;;;;21.10;11.02;;;;;;;;;;5007595;28;20108;-71
2022/04/04 08:36:21;;;;;;;16.90;8.90;;;;;;;;;;5007491;28;20034;-71
2022/04/04 08:38:46;;;;;;;15.20;9.75;;;;;;;;;;5007926;28;20120;-71
2022/04/04 08:41:12;;;;;;;18.55;11.93;;;;;;;;;;5007559;28;20026;-71
2022/04/04 08:43:40;;;;;;;21.80;10.68;;;;;;;;;;5012136;28;20418;-71
2022/04/04 08:46:06;;;;;;;18.70;8.52;;;;;;;;;;5006450;28;20134;-71
2022/04/04 08:48:34;;;;;;;17.50;11.07;;;;;;;;;;4997372;28;20037;-71
2022/04/04 08:50:59;;;;;;;21.67;10.25;;;;;;;;;;5007443;28;20038;-71
2022/04/04 08:53:25;;;;;;;16.65;8.77;;;;;;;;;;5007032;28;20026;-71
2022/04/04 08:55:50;;;;;;;14.90;8.93;;;;;;;;;;5006129;28;20026;-71
2022/04/04 08:58:16;;;;;;;15.52;9.60;;;;;;;;;;5008268;28;20422;-71
2022/04/04 09:00:42;;;;;;;13.90;8.65;;;;;;;;;;5006827;28;20706;-72
2022/04/04 09:03:09;;;;;;;14.85;9.23;;;;;;;;;;5006279;28;20134;-71
2022/04/04 09:05:50;;;;;;;17.45;9.98;;;;;;;;;;5007628;28;20033;-71
2022/04/04 09:08:18;;;;;;;13.93;8.30;;;;;;;;;;5002903;28;20050;-71
2022/04/04 09:10:44;;;;;;;17.83;9.32;;;;;;;;;;5005364;28;20030;-71
2022/04/04 09:13:15;;;;;;;16.83;9.65;;;;;;;;;;5005865;28;20058;-71
2022/04/04 09:16:06;;;;;;;10.80;7.15;;;;;;;;;;5006383;28;20111;-71
2022/04/04 09:18:37;;;;;;;13.75;8.80;;;;;;;;;;5007646;28;20042;-71
2022/04/04 09:21:06;;;;;;;14.95;7.03;;;;;;;;;;5005387;28;20128;-71
2022/04/04 09:23:55;;;;;;;14.13;7.90;;;;;;;;;;4999583;28;20081;-72
2022/04/04 09:26:37;;;;;;;14.63;6.72;;;;;;;;;;5005835;28;20555;-72
2022/04/04 09:29:06;;;;;;;11.80;7.10;;;;;;;;;;5004903;28;20491;-71
2022/04/04 09:31:32;;;;;;;12.27;7.10;;;;;;;;;;5006262;28;20125;-71
2022/04/04 09:34:02;;;;;;;12.98;6.75;;;;;;;;;;5007171;28;20614;-71
2022/04/04 09:36:28;;;;;;;11.18;5.90;;;;;;;;;;5006355;28;20611;-71
2022/04/04 09:39:04;;;;;;;16.60;8.20;;;;;;;;;;5007194;28;20080;-71
2022/04/04 09:41:30;;;;;;;19.05;8.68;;;;;;;;;;5006395;28;20038;-72
2022/04/04 09:44:03;;;;;;;16.40;9.05;;;;;;;;;;5021718;28;20038;-71
2022/04/04 09:46:35;;;;;;;15.63;7.72;;;;;;;;;;5008636;28;20185;-72
2022/04/04 09:49:07;;;;;;;10.82;5.80;;;;;;;;;;4992646;28;20045;-71
2022/04/04 09:51:36;;;;;;;14.48;7.60;;;;;;;;;;5003589;28;20046;-71
2022/04/04 09:54:03;;;;;;;13.07;6.78;;;;;;;;;;5007021;28;20048;-71
2022/04/04 09:56:29;;;;;;;11.70;6.28;;;;;;;;;;5004817;28;20021;-71
2022/04/04 09:58:56;;;;;;;13.55;6.47;;;;;;;;;;5007401;28;20040;-71
2022/04/04 10:01:21;;;;;;;10.75;5.78;;;;;;;;;;5005734;28;20048;-71
2022/04/04 10:03:47;;;;;;;17.85;8.40;;;;;;;;;;5007173;28;20057;-71
2022/04/04 10:06:13;;;;;;;12.73;6.80;;;;;;;;;;5006569;28;20109;-71
2022/04/04 10:08:38;;;;;;;16.45;7.13;;;;;;;;;;5005572;28;20045;-71
2022/04/04 10:11:08;;;;;;;11.82;7.13;;;;;;;;;;5006590;28;20442;-71
2022/04/04 10:13:34;;;;;;;12.23;6.88;;;;;;;;;;5006322;28;20049;-71
2022/04/04 10:16:00;;;;;;;11.10;5.65;;;;;;;;;;5006853;28;20038;-71
2022/04/04 10:18:25;;;;;;;7.50;4.78;;;;;;;;;;5005356;28;20037;-71
2022/04/04 10:20:55;;;;;;;11.85;7.65;;;;;;;;;;5006466;28;20575;-71
2022/04/04 10:23:23;;;;;;;9.85;5.82;;;;;;;;;;5004583;28;20053;-71
2022/04/04 10:25:49;;;;;;;12.50;6.82;;;;;;;;;;5009745;28;20044;-71
2022/04/04 10:28:28;;;;;;;12.57;6.78;;;;;;;;;;5009151;28;20531;-71
2022/04/04 10:30:57;;;;;;;11.55;6.50;;;;;;;;;;4994078;28;20042;-72
2022/04/04 10:33:25;;;;;;;10.27;6.38;;;;;;;;;;5010101;28;20068;-71
2022/04/04 10:36:07;;;;;;;16.80;6.88;;;;;;;;;;5010144;28;20057;-71
2022/04/04 10:38:38;;;;;;;11.77;6.45;;;;;;;;;;5009977;28;20036;-71
2022/04/04 10:41:07;;;;;;;13.15;6.28;;;;;;;;;;5010818;28;20121;-72
2022/04/04 10:43:53;;;;;;;12.50;6.60;;;;;;;;;;5011684;28;20865;-71
2022/04/04 10:46:23;;;;;;;10.65;6.15;;;;;;;;;;4995274;28;20046;-71
2022/04/04 10:48:51;;;;;;;13.48;7.10;;;;;;;;;;5009992;28;20049;-71
2022/04/04 10:51:27;;;;;;;11.27;5.90;;;;;;;;;;5008775;28;20042;-71
2022/04/04 10:54:00;;;;;;;11.25;7.07;;;;;;;;;;5009497;28;20041;-71
2022/04/04 10:56:44;;;;;;;14.25;7.45;;;;;;;;;;5009429;28;20018;-71
2022/04/04 10:59:16;;;;;;;11.93;7.55;;;;;;;;;;5010067;28;20036;-71
2022/04/04 11:01:46;;;;;;;11.70;6.38;;;;;;;;;;5007924;28;20627;-71
2022/04/04 11:04:37;;;;;;;13.93;8.30;;;;;;;;;;5008036;28;20057;-71
2022/04/04 11:09:52;;;;;;;10.63;6.80;;;;;;;;;;5009953;28;20092;-71
2022/04/04 11:12:18;;;;;;;15.68;8.20;;;;;;;;;;5004549;28;20034;-70
2022/04/04 11:14:54;;;;;;;13.88;7.28;;;;;;;;;;5009684;28;20049;-70
2022/04/04 11:17:37;;;;;;;19.77;9.02;;;;;;;;;;5008715;28;20076;-71
2022/04/04 11:20:21;;;;;;;13.10;7.85;;;;;;;;;;5009631;28;20026;-71
2022/04/04 11:22:51;;;;;;;10.25;5.60;;;;;;;;;;5008969;28;20049;-71
2022/04/04 11:25:19;;;;;;;17.42;8.63;;;;;;;;;;5019205;28;20401;-70
2022/04/04 11:27:48;;;;;;;14.13;7.53;;;;;;;;;;5000311;28;20034;-71
2022/04/04 11:30:15;;;;;;;13.25;7.07;;;;;;;;;;5008116;28;20045;-70
2022/04/04 11:32:42;;;;;;;14.13;7.43;;;;;;;;;;5008722;28;20117;-70
2022/04/04 11:35:09;;;;;;;12.05;7.10;;;;;;;;;;5009708;28;20056;-70
2022/04/04 11:37:42;;;;;;;10.50;6.30;;;;;;;;;;5008176;28;20038;-71
2022/04/04 11:40:13;;;;;;;10.55;6.55;;;;;;;;;;4992913;28;20045;-71
2022/04/04 11:42:40;;;;;;;13.68;7.80;;;;;;;;;;5008903;28;20041;-71
2022/04/04 11:45:08;;;;;;;12.85;6.65;;;;;;;;;;5009052;28;20145;-71
2022/04/04 11:47:33;;;;;;;11.32;6.07;;;;;;;;;;5009130;28;20036;-71
2022/04/04 11:50:01;;;;;;;13.82;6.95;;;;;;;;;;5007799;28;20026;-71
2022/04/04 11:52:27;;;;;;;12.30;7.00;;;;;;;;;;4993800;28;20108;-71
2022/04/04 11:54:53;;;;;;;11.63;7.32;;;;;;;;;;5009434;28;20076;-71
2022/04/04 11:57:21;;;;;;;10.88;7.32;;;;;;;;;;5006516;28;20038;-71
2022/04/04 11:59:49;;;;;;;14.02;6.32;;;;;;;;;;5007859;28;20033;-71
2022/04/04 12:02:14;;;;;;;13.80;7.15;;;;;;;;;;5009244;28;20053;-71
2022/04/04 12:04:41;;;;;;;15.63;6.22;;;;;;;;;;5013943;28;20450;-71
2022/04/04 12:07:09;;;;;;;14.02;8.00;;;;;;;;;;5012447;28;20045;-71
2022/04/04 12:09:36;;;;;;;14.77;9.07;;;;;;;;;;5007884;28;20088;-71
2022/04/04 12:12:07;;;;;;;14.52;8.00;;;;;;;;;;5009110;28;20116;-71
2022/04/04 12:14:38;;;;;;;13.50;8.20;;;;;;;;;;5006619;28;20057;-71
2022/04/04 12:17:08;;;;;;;15.80;8.50;;;;;;;;;;5009158;28;20101;-71
2022/04/04 12:19:43;;;;;;;14.30;7.10;;;;;;;;;;5005585;28;20041;-71
2022/04/04 12:24:55;;;;;;;14.32;7.38;;;;;;;;;;5007043;28;20038;-71
2022/04/04 12:24:55;;;;;;;17.83;8.57;;;;;;;;;;5008842;28;20045;-71
2022/04/04 12:27:21;;;;;;;13.63;8.90;;;;;;;;;;5000167;28;20030;-71
2022/04/04 12:29:46;;;;;;;14.45;7.63;;;;;;;;;;5003736;28;20052;-71
2022/04/04 12:32:14;;;;;;;15.73;8.48;;;;;;;;;;5007199;28;20047;-71
2022/04/04 12:34:40;;;;;;;16.60;8.35;;;;;;;;;;5006300;28;20052;-71
2022/04/04 12:37:07;;;;;;;13.27;7.10;;;;;;;;;;5008559;28;20038;-71
2022/04/04 12:39:33;;;;;;;19.20;8.70;;;;;;;;;;5007426;28;20049;-70
2022/04/04 12:41:58;;;;;;;13.52;8.15;;;;;;;;;;5003521;28;20437;-71
2022/04/04 12:44:27;;;;;;;17.90;9.30;;;;;;;;;;5005933;28;20018;-71
2022/04/04 12:47:09;;;;;;;14.05;8.07;;;;;;;;;;5008407;28;20026;-71
2022/04/04 12:49:35;;;;;;;16.27;7.85;;;;;;;;;;5006162;28;20104;-71
2022/04/04 12:52:07;;;;;;;14.00;7.70;;;;;;;;;;5008203;28;20073;-71
2022/04/04 12:54:35;;;;;;;14.77;7.18;;;;;;;;;;5006644;28;20041;-71
2022/04/04 12:57:03;;;;;;;14.57;8.23;;;;;;;;;;5006189;28;20067;-70
2022/04/04 12:59:29;;;;;;;14.85;7.55;;;;;;;;;;5007235;28;20495;-71
2022/04/04 13:02:11;;;;;;;22.00;9.25;;;;;;;;;;5007943;28;20057;-71
2022/04/04 13:04:38;;;;;;;16.15;8.82;;;;;;;;;;5007097;28;20099;-71
2022/04/04 13:07:03;;;;;;;17.23;10.02;;;;;;;;;;5007625;28;20050;-71
2022/04/04 13:09:31;;;;;;;16.85;9.25;;;;;;;;;;5004845;28;20037;-71
2022/04/04 13:11:58;;;;;;;17.15;9.18;;;;;;;;;;5007990;28;20051;-71
2022/04/04 13:14:25;;;;;;;17.08;9.85;;;;;;;;;;5005289;28;20065;-71
2022/04/04 13:16:56;;;;;;;16.20;9.02;;;;;;;;;;5008330;28;20026;-70
2022/04/04 13:19:23;;;;;;;19.73;9.13;;;;;;;;;;5005407;28;20101;-71
2022/04/04 13:21:50;;;;;;;18.63;8.77;;;;;;;;;;5008063;28;20026;-71
2022/04/04 13:24:16;;;;;;;19.48;9.40;;;;;;;;;;5011005;28;20045;-71
2022/04/04 13:26:43;;;;;;;18.08;9.00;;;;;;;;;;5005955;28;20038;-71
2022/04/04 13:29:09;;;;;;;22.77;9.13;;;;;;;;;;5007629;28;20034;-71
2022/04/04 13:31:39;;;;;;;21.33;10.15;;;;;;;;;;5006621;28;20041;-71
2022/04/04 13:34:05;;;;;;;17.70;9.52;;;;;;;;;;5007557;28;20030;-72
2022/04/04 13:36:30;;;;;;;18.75;9.07;;;;;;;;;;5006167;28;20048;-71
2022/04/04 13:38:56;;;;;;;20.40;10.35;;;;;;;;;;5000618;28;20149;-71
2022/04/04 13:41:23;;;;;;;16.60;8.20;;;;;;;;;;5004291;28;20531;-71
2022/04/04 13:43:49;;;;;;;21.08;10.98;;;;;;;;;;5009575;28;20030;-71
2022/04/04 13:46:19;;;;;;;19.38;9.57;;;;;;;;;;5006013;28;20041;-71
2022/04/04 13:48:45;;;;;;;15.25;8.85;;;;;;;;;;5007051;28;20049;-70
2022/04/04 13:51:11;;;;;;;15.60;8.60;;;;;;;;;;5004579;28;20034;-71
2022/04/04 13:53:37;;;;;;;36.30;9.35;;;;;;;;;;5007235;28;20033;-70
2022/04/04 13:56:02;;;;;;;15.25;8.35;;;;;;;;;;5006418;28;20388;-71
2022/04/04 13:58:28;;;;;;;18.77;9.18;;;;;;;;;;5007253;28;20489;-71
2022/04/04 14:00:53;;;;;;;16.58;8.75;;;;;;;;;;5008931;28;20046;-70
2022/04/04 14:03:19;;;;;;;23.27;12.60;;;;;;;;;;5007253;28;20049;-71
2022/04/04 14:05:45;;;;;;;19.85;9.75;;;;;;;;;;5013366;28;20026;-71
2022/04/04 14:08:13;;;;;;;9.73;6.03;;;;;;;;;;5011132;28;20017;-71
2022/04/04 14:10:40;;;;;;;19.38;9.57;;;;;;;;;;5009101;28;20045;-71
2022/04/04 14:13:06;;;;;;;21.00;12.13;;;;;;;;;;5010989;28;20041;-71
2022/04/04 14:15:31;;;;;;;19.85;10.65;;;;;;;;;;5008345;28;20038;-71
2022/04/04 14:17:56;;;;;;;17.13;9.85;;;;;;;;;;5009884;28;20042;-71
2022/04/04 14:20:22;;;;;;;19.50;10.38;;;;;;;;;;5010404;28;20034;-71
2022/04/04 14:22:49;;;;;;;15.30;8.98;;;;;;;;;;5012085;28;20095;-70
2022/04/04 14:25:14;;;;;;;21.17;11.07;;;;;;;;;;5012633;28;20050;-71
2022/04/04 14:27:40;;;;;;;23.90;12.20;;;;;;;;;;5009971;28;20052;-71
2022/04/04 14:30:06;;;;;;;21.25;10.40;;;;;;;;;;5009808;28;20057;-71
2022/04/04 14:32:31;;;;;;;19.80;10.75;;;;;;;;;;4994132;28;20053;-71